createdAt,value
2022-12-17T00:00:46.223Z,0.9
2022-12-17T00:05:46.169Z,1.2
2022-12-17T00:15:46.197Z,1.1
2022-12-17T00:20:46.159Z,1.1
2022-12-17T00:30:46.149Z,1.1
2022-12-17T00:35:46.173Z,1.2
2022-12-17T00:40:46.160Z,1.2
2022-12-17T00:50:46.150Z,1.2
2022-12-17T01:10:46.170Z,1.1
2022-12-17T01:15:46.165Z,1
2022-12-17T01:25:46.161Z,1
2022-12-17T01:35:46.176Z,1.2
2022-12-17T01:45:46.230Z,1
2022-12-17T01:55:46.183Z,1
2022-12-17T02:00:46.218Z,1.1
2022-12-17T02:10:46.159Z,1
2022-12-17T02:30:46.193Z,0.9
2022-12-17T02:35:46.176Z,0.9
2022-12-17T02:40:46.195Z,0.9
2022-12-17T02:50:46.200Z,0.9
2022-12-17T02:55:46.199Z,0.8
2022-12-17T03:00:46.212Z,0.7
2022-12-17T03:10:46.202Z,0.7
2022-12-17T03:15:46.181Z,0.8
2022-12-17T03:20:46.193Z,0.9
2022-12-17T03:30:49.077Z,0.8
2022-12-17T03:45:46.365Z,0.7
2022-12-17T03:55:46.212Z,0.7
2022-12-17T04:05:46.181Z,0.7
2022-12-17T04:10:46.190Z,0.7
2022-12-17T04:20:46.207Z,0.6
2022-12-17T04:25:46.196Z,0.6
2022-12-17T04:30:46.285Z,0.6
2022-12-17T04:40:46.275Z,0.5
2022-12-17T05:05:46.226Z,0.4
2022-12-17T05:15:52.769Z,0.5
2022-12-17T05:20:46.193Z,0.6
2022-12-17T05:30:46.269Z,0.5
2022-12-17T05:40:46.177Z,0.4
2022-12-17T05:45:46.176Z,0.4
2022-12-17T05:50:46.215Z,0.3
2022-12-17T06:00:46.344Z,0.4
2022-12-17T06:25:46.206Z,0.3
2022-12-17T06:30:46.200Z,0.2
2022-12-17T06:40:46.191Z,0.3
2022-12-17T06:45:46.227Z,0.3
2022-12-17T06:55:46.193Z,0.2
2022-12-17T07:05:46.224Z,0.2
2022-12-17T07:15:46.185Z,0.1
2022-12-17T07:20:46.198Z,0
2022-12-17T07:45:46.332Z,0
2022-12-17T07:50:46.203Z,0
2022-12-17T08:00:49.461Z,-0.1
2022-12-17T08:10:46.220Z,-0.4
2022-12-17T08:20:46.194Z,-0.2
2022-12-17T08:30:46.258Z,0
2022-12-17T08:35:46.200Z,0.1
2022-12-17T08:45:46.239Z,0.3
2022-12-17T09:00:46.221Z,0.1
2022-12-17T09:10:46.196Z,-0.1
2022-12-17T09:20:46.220Z,0
2022-12-17T09:25:46.195Z,0
2022-12-17T09:35:46.184Z,0
2022-12-17T09:45:46.330Z,0
2022-12-17T09:50:46.195Z,0
2022-12-17T10:00:46.197Z,-0.1
2022-12-17T10:20:46.225Z,-0.2
2022-12-17T10:30:46.209Z,-0.1
2022-12-17T10:40:46.215Z,-0.1
2022-12-17T10:45:46.201Z,-0.2
2022-12-17T10:55:46.205Z,-0.1
2022-12-17T11:00:50.207Z,-0.2
2022-12-17T11:10:46.202Z,-0.2
2022-12-17T11:20:46.233Z,-0.1
2022-12-17T11:35:46.211Z,-0.3
2022-12-17T11:45:46.221Z,-0.4
2022-12-17T11:50:46.232Z,-0.3
2022-12-17T12:00:46.196Z,-0.3
2022-12-17T12:05:46.224Z,-0.3
2022-12-17T12:15:46.295Z,-0.3
2022-12-17T12:20:46.210Z,-0.3
2022-12-17T12:30:46.238Z,-0.3
2022-12-17T12:55:46.239Z,-0.4
2022-12-17T13:00:46.481Z,-0.4
2022-12-17T13:10:46.202Z,-0.4
2022-12-17T13:15:46.236Z,-0.4
2022-12-17T13:25:46.209Z,-0.3
2022-12-17T13:35:46.229Z,-0.3
2022-12-17T13:45:46.287Z,-0.3
2022-12-17T13:55:46.228Z,-0.3
2022-12-17T14:15:46.226Z,-0.4
2022-12-17T14:20:46.206Z,-0.2
2022-12-17T14:31:24.307Z,-0.4
2022-12-17T14:40:46.238Z,-0.3
2022-12-17T14:50:46.211Z,-0.3
2022-12-17T15:00:46.236Z,-0.3
2022-12-17T15:05:46.213Z,-0.3
2022-12-17T15:15:46.204Z,-0.2
2022-12-17T15:30:46.261Z,-0.1
2022-12-17T15:35:46.209Z,-0.2
2022-12-17T15:45:46.316Z,-0.2
2022-12-17T15:50:46.243Z,-0.3
2022-12-17T16:00:46.216Z,0
2022-12-17T16:10:46.231Z,-0.4
2022-12-17T16:15:46.282Z,-0.3
2022-12-17T16:25:46.205Z,-0.3
2022-12-17T16:50:46.279Z,-0.2
2022-12-17T17:00:46.215Z,-0.2
2022-12-17T17:10:46.250Z,-0.3
2022-12-17T17:20:46.202Z,-0.2
2022-12-17T17:25:57.729Z,-0.1
2022-12-17T17:30:46.245Z,0
2022-12-17T17:35:46.221Z,-0.1
2022-12-17T17:40:46.224Z,0
2022-12-17T17:50:46.239Z,0
2022-12-17T18:10:46.228Z,-0.1
2022-12-17T18:15:46.267Z,-0.1
2022-12-17T18:25:46.215Z,-0.1
2022-12-17T18:35:46.240Z,-0.4
2022-12-17T18:45:46.221Z,-0.4
2022-12-17T18:55:46.249Z,-0.4
2022-12-17T19:05:50.151Z,-0.1
2022-12-17T19:25:46.244Z,0.1
2022-12-17T19:30:46.210Z,0
2022-12-17T19:35:46.209Z,0.1
2022-12-17T19:40:46.222Z,-0.1
2022-12-17T19:50:46.369Z,0
2022-12-17T19:55:46.218Z,0
2022-12-17T20:00:46.269Z,0
2022-12-17T20:05:46.214Z,0.1
2022-12-17T20:15:46.248Z,0.1
2022-12-17T20:25:46.207Z,0
2022-12-17T20:45:46.307Z,-0.1
2022-12-17T20:55:46.215Z,-0.1
2022-12-17T21:00:46.227Z,-0.1
2022-12-17T21:10:46.253Z,-0.1
2022-12-17T21:20:46.227Z,-0.4
2022-12-17T21:30:46.722Z,-0.4
2022-12-17T21:40:46.214Z,-0.5
2022-12-17T21:45:46.284Z,-0.5
2022-12-17T22:05:46.251Z,-0.3
2022-12-17T22:15:47.494Z,-0.3
2022-12-17T22:20:46.215Z,-0.4
2022-12-17T22:25:46.246Z,-0.2
2022-12-17T22:37:24.719Z,-0.3
2022-12-17T22:44:49.373Z,-0.3
2022-12-17T22:45:46.250Z,-0.3
2022-12-17T22:55:46.259Z,-0.2
2022-12-17T23:20:46.247Z,-0.3
2022-12-17T23:25:46.235Z,-0.3
2022-12-17T23:35:46.261Z,-0.4
2022-12-17T23:40:46.299Z,-0.2
2022-12-17T23:50:46.235Z,-0.3
